createdAt,value
2023-08-22T00:00:45.783Z,20.80
2023-08-22T00:03:51.400Z,20.80
2023-08-22T00:07:01.465Z,20.80
2023-08-22T00:10:07.618Z,20.80
2023-08-22T00:13:15.828Z,20.80
2023-08-22T00:16:21.278Z,20.80
2023-08-22T00:19:30.601Z,20.80
2023-08-22T00:22:39.388Z,20.70
2023-08-22T00:25:46.969Z,20.70
2023-08-22T00:28:52.374Z,20.70
2023-08-22T00:32:01.797Z,20.70
2023-08-22T00:35:15.922Z,20.70
2023-08-22T00:38:27.028Z,20.60
2023-08-22T00:41:32.406Z,20.60
2023-08-22T00:44:39.813Z,20.60
2023-08-22T00:47:45.292Z,20.60
2023-08-22T00:50:52.703Z,20.60
2023-08-22T00:54:01.312Z,20.60
2023-08-22T00:57:08.999Z,20.60
2023-08-22T01:00:15.173Z,20.60
2023-08-22T01:03:22.576Z,20.60
2023-08-22T01:06:36.722Z,20.50
2023-08-22T01:09:52.615Z,20.60
2023-08-22T01:13:05.661Z,20.50
2023-08-22T01:16:13.961Z,20.50
2023-08-22T01:19:21.587Z,20.40
2023-08-22T01:22:31.580Z,20.40
2023-08-22T01:25:38.284Z,20.40
2023-08-22T01:28:49.906Z,20.40
2023-08-22T01:32:00.896Z,20.40
2023-08-22T01:35:10.728Z,20.40
2023-08-22T01:38:19.816Z,20.30
2023-08-22T01:41:27.986Z,20.30
2023-08-22T01:44:33.298Z,20.30
2023-08-22T01:47:40.856Z,20.30
2023-08-22T01:50:46.455Z,20.20
2023-08-22T01:53:56.379Z,20.20
2023-08-22T01:57:01.646Z,20.10
2023-08-22T02:00:11.795Z,20.10
2023-08-22T02:03:20.300Z,20.10
2023-08-22T02:06:27.701Z,20.10
2023-08-22T02:09:36.474Z,20.10
2023-08-22T02:12:43.890Z,20.00
2023-08-22T02:15:49.656Z,20.00
2023-08-22T02:18:57.908Z,20.00
2023-08-22T02:22:05.639Z,20.00
2023-08-22T02:25:16.128Z,19.90
2023-08-22T02:28:21.458Z,19.90
2023-08-22T02:31:29.017Z,19.90
2023-08-22T02:34:34.340Z,19.90
2023-08-22T02:37:41.883Z,19.90
2023-08-22T02:40:50.358Z,19.80
2023-08-22T02:43:57.666Z,19.80
2023-08-22T02:47:03.697Z,19.80
2023-08-22T02:50:12.073Z,19.70
2023-08-22T02:53:17.410Z,19.70
2023-08-22T02:56:29.059Z,19.70
2023-08-22T02:59:34.634Z,19.70
2023-08-22T03:02:43.312Z,19.70
2023-08-22T03:05:49.114Z,19.70
2023-08-22T03:08:56.457Z,19.70
2023-08-22T03:12:04.660Z,19.60
2023-08-22T03:15:13.084Z,19.60
2023-08-22T03:18:20.511Z,19.60
2023-08-22T03:21:28.389Z,19.60
2023-08-22T03:24:34.536Z,19.50
2023-08-22T03:27:45.336Z,19.50
2023-08-22T03:30:50.839Z,19.50
2023-08-22T03:33:58.520Z,19.50
2023-08-22T03:37:04.159Z,19.50
2023-08-22T03:40:12.990Z,19.40
2023-08-22T03:43:22.792Z,19.40
2023-08-22T03:46:38.201Z,19.40
2023-08-22T03:49:48.142Z,19.30
2023-08-22T03:52:55.468Z,19.30
2023-08-22T03:56:02.031Z,19.30
2023-08-22T03:59:15.387Z,19.30
2023-08-22T04:02:20.920Z,19.20
2023-08-22T04:05:28.838Z,19.20
2023-08-22T04:08:34.169Z,19.20
2023-08-22T04:11:42.155Z,19.10
2023-08-22T04:14:50.125Z,19.10
2023-08-22T04:17:57.441Z,19.00
2023-08-22T04:21:02.791Z,19.00
2023-08-22T04:24:11.225Z,19.00
2023-08-22T04:27:17.275Z,18.90
2023-08-22T04:30:27.783Z,18.90
2023-08-22T04:33:34.204Z,18.90
2023-08-22T04:36:41.598Z,18.90
2023-08-22T04:39:47.176Z,18.80
2023-08-22T04:43:29.840Z,18.80
2023-08-22T04:46:38.850Z,18.70
2023-08-22T04:49:47.313Z,18.80
2023-08-22T04:52:52.986Z,18.70
2023-08-22T04:56:00.269Z,18.90
2023-08-22T04:59:07.666Z,18.70
2023-08-22T05:02:17.948Z,18.80
2023-08-22T05:05:23.416Z,18.70
2023-08-22T05:08:30.724Z,18.70
2023-08-22T05:11:36.343Z,18.70
2023-08-22T05:14:44.801Z,18.70
2023-08-22T05:17:52.852Z,18.70
2023-08-22T05:21:00.424Z,18.70
2023-08-22T05:24:06.825Z,18.70
2023-08-22T05:27:15.144Z,18.80
2023-08-22T05:30:20.662Z,18.80
2023-08-22T05:33:30.634Z,18.80
2023-08-22T05:36:35.966Z,18.90
2023-08-22T05:39:43.971Z,18.80
2023-08-22T05:42:49.388Z,18.80
2023-08-22T05:45:56.753Z,18.80
2023-08-22T05:49:04.788Z,18.80
2023-08-22T05:52:12.128Z,18.90
2023-08-22T05:55:17.641Z,18.90
2023-08-22T05:58:26.212Z,18.90
2023-08-22T06:01:33.132Z,19.10
2023-08-22T06:04:44.768Z,19.10
2023-08-22T06:07:50.225Z,19.10
2023-08-22T06:10:58.131Z,19.10
2023-08-22T06:14:04.107Z,19.20
2023-08-22T06:17:11.653Z,19.30
2023-08-22T06:20:19.965Z,19.20
2023-08-22T06:23:27.517Z,19.40
2023-08-22T06:26:35.295Z,19.50
2023-08-22T06:29:42.596Z,19.50
2023-08-22T06:32:47.895Z,19.60
2023-08-22T06:35:57.886Z,19.60
2023-08-22T06:39:11.414Z,19.70
2023-08-22T06:42:18.884Z,19.80
2023-08-22T06:45:28.771Z,19.80
2023-08-22T06:48:42.089Z,19.90
2023-08-22T06:51:53.126Z,20.00
2023-08-22T06:55:02.201Z,20.00
2023-08-22T06:58:11.296Z,20.10
2023-08-22T07:01:20.641Z,20.20
2023-08-22T07:04:30.825Z,20.30
2023-08-22T07:07:43.107Z,20.40
2023-08-22T07:10:49.311Z,20.40
2023-08-22T07:14:00.391Z,20.50
2023-08-22T07:17:09.094Z,20.60
2023-08-22T07:20:18.886Z,20.70
2023-08-22T07:23:26.935Z,20.90
2023-08-22T07:26:34.218Z,21.10
2023-08-22T07:29:39.512Z,21.30
2023-08-22T07:32:46.810Z,21.60
2023-08-22T07:35:52.146Z,21.90
2023-08-22T07:39:02.424Z,22.20
2023-08-22T07:42:07.922Z,22.50
2023-08-22T07:45:15.262Z,22.80
2023-08-22T07:48:20.646Z,23.00
2023-08-22T07:51:27.980Z,23.30
2023-08-22T07:54:36.049Z,23.50
2023-08-22T07:57:43.314Z,23.70
2023-08-22T08:00:50.954Z,23.90
2023-08-22T08:03:59.200Z,24.10
2023-08-22T08:07:04.825Z,24.20
2023-08-22T08:10:15.226Z,24.30
2023-08-22T08:13:20.583Z,24.50
2023-08-22T08:19:40.931Z,24.80
2023-08-22T08:22:48.260Z,25.00
2023-08-22T08:25:56.188Z,25.20
2023-08-22T08:29:03.821Z,25.30
2023-08-22T08:32:09.225Z,25.40
2023-08-22T08:35:16.886Z,25.40
2023-08-22T08:38:22.226Z,25.60
2023-08-22T08:41:37.005Z,25.50
2023-08-22T08:44:43.165Z,25.60
2023-08-22T08:47:51.043Z,25.60
2023-08-22T08:50:57.395Z,25.70
2023-08-22T08:54:06.059Z,25.70
2023-08-22T08:57:14.150Z,25.70
2023-08-22T09:00:22.139Z,25.80
2023-08-22T09:03:27.537Z,25.80
2023-08-22T09:06:34.877Z,25.90
2023-08-22T09:09:40.469Z,26.00
2023-08-22T09:12:50.582Z,26.00
2023-08-22T09:16:01.112Z,26.10
2023-08-22T09:19:08.720Z,26.20
2023-08-22T09:22:17.254Z,26.30
2023-08-22T09:25:24.556Z,26.30
2023-08-22T09:28:34.636Z,26.50
2023-08-22T09:31:40.194Z,26.50
2023-08-22T09:34:56.955Z,26.60
2023-08-22T09:38:11.429Z,26.70
2023-08-22T09:41:30.147Z,26.80
2023-08-22T09:44:42.751Z,26.90
2023-08-22T09:47:54.561Z,26.90
2023-08-22T09:51:03.750Z,27.00
2023-08-22T09:54:11.377Z,27.00
2023-08-22T09:57:17.177Z,27.10
2023-08-22T10:00:31.975Z,27.20
2023-08-22T10:03:40.740Z,27.30
2023-08-22T10:06:54.511Z,27.30
2023-08-22T10:10:00.841Z,27.40
2023-08-22T10:13:10.469Z,27.50
2023-08-22T10:16:22.210Z,27.50
2023-08-22T10:19:30.664Z,27.50
2023-08-22T10:22:38.529Z,27.60
2023-08-22T10:25:53.340Z,27.60
2023-08-22T10:29:17.100Z,27.60
2023-08-22T10:32:32.814Z,27.60
2023-08-22T10:35:38.526Z,27.60
2023-08-22T10:38:55.603Z,27.60
2023-08-22T10:42:01.053Z,27.70
2023-08-22T10:45:20.866Z,27.70
2023-08-22T10:48:28.755Z,27.70
2023-08-22T10:51:47.035Z,27.70
2023-08-22T10:55:11.172Z,27.80
2023-08-22T10:58:37.238Z,27.70
2023-08-22T11:01:42.608Z,27.80
2023-08-22T11:04:53.374Z,27.90
2023-08-22T11:07:58.776Z,27.90
2023-08-22T11:11:06.602Z,27.90
2023-08-22T11:14:11.864Z,28.00
2023-08-22T11:17:19.917Z,28.00
2023-08-22T11:20:27.864Z,28.00
2023-08-22T11:23:36.320Z,28.00
2023-08-22T11:26:41.544Z,28.00
2023-08-22T11:29:51.129Z,28.00
2023-08-22T11:32:56.433Z,28.00
2023-08-22T11:36:07.263Z,28.00
2023-08-22T11:39:12.692Z,27.90
2023-08-22T11:42:20.731Z,27.90
2023-08-22T11:45:26.741Z,27.90
2023-08-22T11:48:34.089Z,27.80
2023-08-22T11:51:41.944Z,27.80
2023-08-22T11:54:49.779Z,27.80
2023-08-22T11:57:57.533Z,27.70
2023-08-22T12:01:05.729Z,27.70
2023-08-22T12:04:11.153Z,27.70
2023-08-22T12:07:21.165Z,27.60
2023-08-22T12:10:26.457Z,27.60
2023-08-22T12:13:33.805Z,27.60
2023-08-22T12:16:54.089Z,27.60
2023-08-22T12:20:02.032Z,27.60
2023-08-22T12:23:10.938Z,27.50
2023-08-22T12:26:18.328Z,27.50
2023-08-22T12:29:23.593Z,27.40
2023-08-22T12:32:32.621Z,27.40
2023-08-22T12:35:41.559Z,27.30
2023-08-22T12:38:51.497Z,27.40
2023-08-22T12:41:56.797Z,27.30
2023-08-22T12:45:04.520Z,27.30
2023-08-22T12:48:10.270Z,27.30
2023-08-22T12:51:17.564Z,27.20
2023-08-22T12:54:25.446Z,27.20
2023-08-22T12:57:32.767Z,27.20
2023-08-22T13:00:39.801Z,27.10
2023-08-22T13:03:47.683Z,27.10
2023-08-22T13:06:53.118Z,27.10
2023-08-22T13:10:05.353Z,27.10
2023-08-22T13:13:13.948Z,27.20
2023-08-22T13:16:22.060Z,27.00
2023-08-22T13:19:29.090Z,27.20
2023-08-22T13:22:36.430Z,27.30
2023-08-22T13:25:44.719Z,27.40
2023-08-22T13:28:52.607Z,27.40
2023-08-22T13:31:57.937Z,27.40
2023-08-22T13:35:05.388Z,27.40
2023-08-22T13:38:10.733Z,27.40
2023-08-22T13:41:23.162Z,27.40
2023-08-22T13:44:28.488Z,27.50
2023-08-22T13:47:36.018Z,27.50
2023-08-22T13:50:42.970Z,27.50
2023-08-22T13:53:50.360Z,27.60
2023-08-22T13:56:58.217Z,27.60
2023-08-22T14:00:05.685Z,27.50
2023-08-22T14:03:11.061Z,27.50
2023-08-22T14:06:18.513Z,27.50
2023-08-22T14:09:26.797Z,27.40
2023-08-22T14:12:37.146Z,27.50
2023-08-22T14:15:42.575Z,27.50
2023-08-22T14:18:49.961Z,27.50
2023-08-22T14:21:56.405Z,27.50
2023-08-22T14:25:04.572Z,27.50
2023-08-22T14:28:12.529Z,27.50
2023-08-22T14:31:20.009Z,27.50
2023-08-22T14:34:25.413Z,27.60
2023-08-22T14:37:34.260Z,27.60
2023-08-22T14:40:39.596Z,27.70
2023-08-22T14:43:49.656Z,27.80
2023-08-22T14:46:55.043Z,27.90
2023-08-22T14:50:02.520Z,27.90
2023-08-22T14:53:08.168Z,28.00
2023-08-22T14:56:15.581Z,28.00
2023-08-22T14:59:24.607Z,28.00
2023-08-22T15:02:31.919Z,28.00
2023-08-22T15:05:41.262Z,28.00
2023-08-22T15:08:48.711Z,28.00
2023-08-22T15:11:53.965Z,28.00
2023-08-22T15:15:04.546Z,28.00
2023-08-22T15:18:10.193Z,28.00
2023-08-22T15:21:17.578Z,28.00
2023-08-22T15:24:22.925Z,28.00
2023-08-22T15:27:33.087Z,28.00
2023-08-22T15:30:41.096Z,28.00
2023-08-22T15:33:48.460Z,28.00
2023-08-22T15:36:54.748Z,28.00
2023-08-22T15:40:05.677Z,28.00
2023-08-22T15:43:10.985Z,28.00
2023-08-22T15:46:20.911Z,28.00
2023-08-22T15:49:26.295Z,27.90
2023-08-22T15:52:40.924Z,27.90
2023-08-22T15:55:47.397Z,27.80
2023-08-22T15:58:54.730Z,27.80
2023-08-22T16:02:02.661Z,27.80
2023-08-22T16:05:10.842Z,27.80
2023-08-22T16:08:16.241Z,27.80
2023-08-22T16:11:23.589Z,27.70
2023-08-22T16:14:29.045Z,27.70
2023-08-22T16:17:39.396Z,27.70
2023-08-22T16:20:45.884Z,27.70
2023-08-22T16:23:53.822Z,27.60
2023-08-22T16:26:59.473Z,27.50
2023-08-22T16:30:08.364Z,27.50
2023-08-22T16:33:16.403Z,27.40
2023-08-22T16:36:24.347Z,27.40
2023-08-22T16:39:29.615Z,27.30
2023-08-22T16:42:37.050Z,27.30
2023-08-22T16:45:45.989Z,27.20
2023-08-22T16:48:56.336Z,27.20
2023-08-22T16:52:01.951Z,27.10
2023-08-22T16:55:11.824Z,27.00
2023-08-22T16:58:17.849Z,27.00
2023-08-22T17:01:28.341Z,26.90
2023-08-22T17:04:36.524Z,26.90
2023-08-22T17:07:44.381Z,26.80
2023-08-22T17:10:50.412Z,26.70
2023-08-22T17:13:58.083Z,26.60
2023-08-22T17:17:03.475Z,26.60
2023-08-22T17:20:15.360Z,26.50
2023-08-22T17:23:20.679Z,26.40
2023-08-22T17:26:27.951Z,26.40
2023-08-22T17:29:33.295Z,26.40
2023-08-22T17:32:40.678Z,26.30
2023-08-22T17:35:48.650Z,26.30
2023-08-22T17:38:56.058Z,26.20
2023-08-22T17:42:01.325Z,26.20
2023-08-22T17:45:09.858Z,26.10
2023-08-22T17:48:15.147Z,26.00
2023-08-22T17:51:25.130Z,26.00
2023-08-22T17:54:30.467Z,26.00
2023-08-22T17:57:37.987Z,26.00
2023-08-22T18:00:43.626Z,25.90
2023-08-22T18:03:52.600Z,25.80
2023-08-22T18:07:00.752Z,25.80
2023-08-22T18:10:09.587Z,25.70
2023-08-22T18:13:15.169Z,25.60
2023-08-22T18:16:22.729Z,25.60
2023-08-22T18:19:28.302Z,25.50
2023-08-22T18:22:38.852Z,25.40
2023-08-22T18:25:44.130Z,25.30
2023-08-22T18:28:51.424Z,25.30
2023-08-22T18:31:56.856Z,25.20
2023-08-22T18:35:04.217Z,25.10
2023-08-22T18:38:15.550Z,25.10
2023-08-22T18:41:25.078Z,25.00
2023-08-22T18:44:30.514Z,24.90
2023-08-22T18:47:37.898Z,24.80
2023-08-22T18:50:44.088Z,24.80
2023-08-22T18:53:54.807Z,24.70
2023-08-22T18:57:00.148Z,24.70
2023-08-22T19:00:16.022Z,24.60
2023-08-22T19:03:21.755Z,24.50
2023-08-22T19:06:29.208Z,24.50
2023-08-22T19:09:37.041Z,24.40
2023-08-22T19:12:44.375Z,24.40
2023-08-22T19:15:51.075Z,24.30
2023-08-22T19:18:58.826Z,24.20
2023-08-22T19:22:04.065Z,24.10
2023-08-22T19:25:14.373Z,24.00
2023-08-22T19:28:19.714Z,24.00
2023-08-22T19:31:27.374Z,23.90
2023-08-22T19:34:33.208Z,23.90
2023-08-22T19:37:40.572Z,23.80
2023-08-22T19:40:49.925Z,23.70
2023-08-22T19:43:57.302Z,23.60
2023-08-22T19:47:02.723Z,23.60
2023-08-22T19:50:11.233Z,23.50
2023-08-22T19:53:17.397Z,23.40
2023-08-22T19:56:27.674Z,23.40
2023-08-22T19:59:33.033Z,23.30
2023-08-22T20:02:40.686Z,23.30
2023-08-22T20:05:48.320Z,23.20
2023-08-22T20:08:56.188Z,23.10
2023-08-22T20:12:04.106Z,23.10
2023-08-22T20:15:12.155Z,23.00
2023-08-22T20:18:17.553Z,23.00
2023-08-22T20:21:25.520Z,23.00
2023-08-22T20:24:30.869Z,22.90
2023-08-22T20:27:40.969Z,22.80
2023-08-22T20:30:53.687Z,22.80
2023-08-22T20:34:01.715Z,22.70
2023-08-22T20:37:07.617Z,22.70
2023-08-22T20:40:15.325Z,22.70
2023-08-22T20:43:23.256Z,22.60
2023-08-22T20:46:30.799Z,22.60
2023-08-22T20:49:36.065Z,22.50
2023-08-22T20:52:43.485Z,22.50
2023-08-22T20:55:52.887Z,22.40
2023-08-22T20:59:02.821Z,22.30
2023-08-22T21:02:08.746Z,22.30
2023-08-22T21:05:17.922Z,22.30
2023-08-22T21:08:23.350Z,22.20
2023-08-22T21:11:30.764Z,22.20
2023-08-22T21:14:38.668Z,22.30
2023-08-22T21:17:46.750Z,22.20
2023-08-22T21:20:55.566Z,22.20
2023-08-22T21:24:03.039Z,22.10
2023-08-22T21:27:08.791Z,22.20
2023-08-22T21:30:21.261Z,22.00
2023-08-22T21:33:26.894Z,22.00
2023-08-22T21:36:34.332Z,21.90
2023-08-22T21:39:40.010Z,21.90
2023-08-22T21:42:47.656Z,21.90
2023-08-22T21:45:58.369Z,21.80
2023-08-22T21:49:05.807Z,21.70
2023-08-22T21:52:13.009Z,21.60
2023-08-22T21:55:22.573Z,21.60
2023-08-22T21:58:27.793Z,21.50
2023-08-22T22:01:37.657Z,21.50
2023-08-22T22:04:43.494Z,21.60
2023-08-22T22:07:50.803Z,21.40
2023-08-22T22:10:56.179Z,21.50
2023-08-22T22:14:03.589Z,21.20
2023-08-22T22:17:13.444Z,21.10
2023-08-22T22:20:18.879Z,21.10
2023-08-22T22:23:26.739Z,21.00
2023-08-22T22:26:33.371Z,21.00
2023-08-22T22:29:40.666Z,21.00
2023-08-22T22:32:48.572Z,20.90
2023-08-22T22:35:56.122Z,20.80
2023-08-22T22:39:01.780Z,20.80
2023-08-22T22:42:09.686Z,20.70
2023-08-22T22:45:15.016Z,20.60
2023-08-22T22:48:25.653Z,20.60
2023-08-22T22:51:31.066Z,20.50
2023-08-22T22:54:39.841Z,20.50
2023-08-22T22:57:45.583Z,20.50
2023-08-22T23:00:53.148Z,20.30
2023-08-22T23:04:01.134Z,20.40
2023-08-22T23:07:08.866Z,20.30
2023-08-22T23:10:14.557Z,20.30
2023-08-22T23:13:22.202Z,20.40
2023-08-22T23:16:27.605Z,20.20
2023-08-22T23:19:38.661Z,20.10
2023-08-22T23:22:45.971Z,20.40
2023-08-22T23:25:54.101Z,20.10
2023-08-22T23:28:59.323Z,19.90
2023-08-22T23:32:06.894Z,19.80
2023-08-22T23:35:15.564Z,19.90
2023-08-22T23:38:22.916Z,19.80
2023-08-22T23:41:31.025Z,19.80
2023-08-22T23:44:38.447Z,19.70
2023-08-22T23:47:43.791Z,19.70
2023-08-22T23:50:56.052Z,19.70
2023-08-22T23:54:06.098Z,19.60
2023-08-22T23:57:13.358Z,19.50
